Time;durP1;ratioP1;P1;durP2;ratioP2;P2;SDS_P1;SDS_P2;PMS_P1;PMS_P2;Temp;Humidity;BMP_temperature;BMP_pressure;BME280_temperature;BME280_humidity;BME280_pressure;Samples;Min_cycle;Max_cycle;Signal;HPM_P1;HPM_P2
2023/12/01 00:01:56;1253193.00;4.18;2186.69;69346.00;0.23;120.63;;;;;7.00;1.00;;;;;;2276201;61;2005;-86
2023/12/01 00:04:23;1616588.00;5.39;2864.48;243232.00;0.81;420.31;;;;;7.30;1.00;;;;;;2276410;61;2010;-87
2023/12/01 00:06:50;1017067.00;3.39;1762.72;150695.00;0.50;261.01;;;;;7.30;1.00;;;;;;2276158;61;1402;-87
2023/12/01 00:09:17;117327128.00;391.09;65421900.00;89922.00;0.30;156.17;;;;;7.50;1.00;;;;;;2276313;61;1115;-86
2023/12/01 00:11:43;261803.00;0.87;452.25;0.00;0.00;0.62;;;;;7.50;1.00;;;;;;2276284;61;1122;-86
2023/12/01 00:14:10;59999.00;0.20;104.48;0.00;0.00;0.62;;;;;7.40;1.00;;;;;;2276311;61;1038;-86
2023/12/01 00:16:37;282550.00;0.94;487.92;0.00;0.00;0.62;;;;;7.40;1.00;;;;;;2275913;61;2163;-86
2023/12/01 00:19:05;191129.00;0.64;330.65;0.00;0.00;0.62;;;;;7.50;1.00;;;;;;2276308;61;1534;-87
2023/12/01 00:21:32;47951.00;0.16;83.64;0.00;0.00;0.62;;;;;7.70;1.00;;;;;;2276282;61;1927;-86
2023/12/01 00:23:59;146772.00;0.49;254.24;17566.00;0.06;31.05;;;;;7.70;1.00;;;;;;2276354;61;1100;-87
2023/12/01 00:26:26;133401.00;0.44;231.19;0.00;0.00;0.62;;;;;7.70;1.00;;;;;;2276247;61;1265;-87
2023/12/01 00:28:53;57248.00;0.19;99.72;0.00;0.00;0.62;;;;;7.80;1.00;;;;;;2276319;61;1110;-86
2023/12/01 00:31:20;37712.00;0.13;65.93;0.00;0.00;0.62;;;;;7.80;1.00;;;;;;2276286;61;1076;-85
2023/12/01 00:33:47;102007.00;0.34;177.04;0.00;0.00;0.62;;;;;7.90;1.00;;;;;;2276255;61;959;-83
2023/12/01 00:36:15;133091.00;0.44;230.66;0.00;0.00;0.62;;;;;7.90;1.00;;;;;;2276151;61;1273;-85
2023/12/01 00:38:43;54318.00;0.18;94.65;0.00;0.00;0.62;;;;;7.90;1.00;;;;;;2276195;61;1407;-84
2023/12/01 00:41:09;259886.00;0.87;448.95;52575.00;0.18;91.64;;;;;7.90;1.00;;;;;;2276089;61;2008;-86
2023/12/01 00:43:36;0.00;0.00;0.62;0.00;0.00;0.62;;;;;8.00;1.00;;;;;;2276216;61;1103;-86
2023/12/01 00:46:03;118504.00;0.40;205.50;0.00;0.00;0.62;;;;;7.90;1.00;;;;;;2276223;61;1286;-85
2023/12/01 00:48:30;15015.00;0.05;26.64;0.00;0.00;0.62;;;;;7.70;1.00;;;;;;2276205;61;1126;-86
2023/12/01 00:50:57;214734.00;0.72;371.28;148.00;0.00;0.88;;;;;7.60;1.00;;;;;;2276249;61;1107;-84
2023/12/01 00:53:26;754122.00;2.51;1301.23;71856.00;0.24;124.97;;;;;7.60;1.00;;;;;;2276200;61;939;-85
2023/12/01 00:55:52;1110564.00;3.70;1929.33;61523.00;0.21;107.11;;;;;7.60;1.00;;;;;;2276026;61;1293;-85
2023/12/01 00:58:19;1271936.00;4.24;2220.84;87012.00;0.29;151.15;;;;;7.70;1.00;;;;;;2276191;61;1019;-86
2023/12/01 01:00:46;1491891.00;4.97;2627.87;91838.00;0.31;159.48;;;;;7.60;1.00;;;;;;2276169;61;1440;-85
2023/12/01 01:03:14;1365039.00;4.55;2391.64;184200.00;0.61;318.72;;;;;7.60;1.00;;;;;;2276151;61;1940;-85
2023/12/01 01:05:41;118024112.00;393.41;66595808.00;92296.00;0.31;160.27;;;;;7.80;1.00;;;;;;2276010;61;1452;-85
2023/12/01 01:08:08;501696.00;1.67;864.74;99897.00;0.33;173.39;;;;;7.60;1.00;;;;;;2276196;61;1121;-86
2023/12/01 01:10:36;116997072.00;389.99;64870844.00;0.00;0.00;0.62;;;;;7.60;1.00;;;;;;2276116;61;996;-85
2023/12/01 01:13:03;72550.00;0.24;126.17;0.00;0.00;0.62;;;;;7.70;1.00;;;;;;2276181;61;1018;-86
2023/12/01 01:15:30;145212.00;0.48;251.56;0.00;0.00;0.62;;;;;7.70;1.00;;;;;;2276124;61;1264;-86
2023/12/01 01:17:57;90918.00;0.30;157.89;0.00;0.00;0.62;;;;;7.60;1.00;;;;;;2276183;61;927;-86
2023/12/01 01:20:24;94150.00;0.31;163.47;0.00;0.00;0.62;;;;;7.50;1.00;;;;;;2276138;61;1024;-87
2023/12/01 01:22:51;95783.00;0.32;166.29;0.00;0.00;0.62;;;;;7.60;1.00;;;;;;2276091;61;2006;-86
2023/12/01 01:25:18;77999.00;0.26;135.58;0.00;0.00;0.62;;;;;7.60;1.00;;;;;;2276068;61;1245;-86
2023/12/01 01:27:46;100832.00;0.34;175.01;0.00;0.00;0.62;;;;;7.50;1.00;;;;;;2276030;61;1055;-85
2023/12/01 01:30:13;85806.00;0.29;149.07;0.00;0.00;0.62;;;;;7.60;1.00;;;;;;2276129;61;1028;-85
2023/12/01 01:32:40;122010.00;0.41;211.55;0.00;0.00;0.62;;;;;7.60;1.00;;;;;;2276072;61;1120;-86
2023/12/01 01:35:07;171250.00;0.57;296.42;0.00;0.00;0.62;;;;;7.80;1.00;;;;;;2275991;61;1334;-85
2023/12/01 01:37:34;46194.00;0.15;80.60;0.00;0.00;0.62;;;;;8.00;1.00;;;;;;2276122;61;937;-86
2023/12/01 01:40:01;165032.00;0.55;285.71;0.00;0.00;0.62;;;;;7.90;1.00;;;;;;2275981;61;1095;-86
2023/12/01 01:42:28;74696.00;0.25;129.87;0.00;0.00;0.62;;;;;7.70;1.00;;;;;;2276023;61;1988;-86
2023/12/01 01:44:56;9963.00;0.03;17.89;0.00;0.00;0.62;;;;;7.80;1.00;;;;;;2275998;61;1119;-85
2023/12/01 01:47:23;41914.00;0.14;73.20;0.00;0.00;0.62;;;;;7.80;1.00;;;;;;2276058;61;1044;-87
2023/12/01 01:49:50;222527.00;0.74;384.69;0.00;0.00;0.62;;;;;7.80;1.00;;;;;;2275895;61;1440;-87
2023/12/01 01:52:18;1083773.00;3.61;1881.43;75735.00;0.25;131.67;;;;;8.00;1.00;;;;;;2275989;61;1090;-86
2023/12/01 01:54:45;2054203.00;6.85;3736.22;217336.00;0.72;375.76;;;;;8.10;1.00;;;;;;2275970;61;1546;-85
2023/12/01 01:57:12;607940.00;2.03;1047.93;100490.00;0.33;174.42;;;;;8.10;1.00;;;;;;2275895;61;1321;-84
2023/12/01 01:59:39;424098.00;1.41;731.24;90812.00;0.30;157.71;;;;;7.90;1.00;;;;;;2275909;61;1514;-86
2023/12/01 02:02:07;274880.00;0.92;474.73;104923.00;0.35;182.07;;;;;7.70;1.00;;;;;;2275998;61;1923;-84
2023/12/01 02:04:34;256534.00;0.86;443.19;34791.00;0.12;60.88;;;;;7.80;1.00;;;;;;2275838;61;936;-85
2023/12/01 02:07:01;235158.00;0.78;406.42;0.00;0.00;0.62;;;;;7.90;1.00;;;;;;2276007;61;1345;-85
2023/12/01 02:09:32;105757.00;0.35;183.51;0.00;0.00;0.62;;;;;7.80;1.00;;;;;;2276005;61;1039;-85
2023/12/01 02:12:00;190686.00;0.64;329.89;0.00;0.00;0.62;;;;;7.60;1.00;;;;;;2275843;61;1079;-88
2023/12/01 02:14:27;81717.00;0.27;142.00;0.00;0.00;0.62;;;;;7.50;1.00;;;;;;2275951;61;1105;-84
2023/12/01 02:16:53;194029.00;0.65;335.64;38644.00;0.13;67.54;;;;;7.40;1.00;;;;;;2275739;61;1309;-85
2023/12/01 02:19:22;29228.00;0.10;51.25;0.00;0.00;0.62;;;;;7.30;1.00;;;;;;2275968;61;1043;-85
2023/12/01 02:21:51;189778.00;0.63;328.33;4204.00;0.01;7.91;;;;;7.40;1.00;;;;;;2275495;61;2013;-84
2023/12/01 02:24:18;1201961.00;4.01;2093.77;99181.00;0.33;172.16;;;;;7.40;1.00;;;;;;2275678;61;1118;-84
2023/12/01 02:26:47;1082641.00;3.61;1879.41;16386.00;0.05;29.01;;;;;7.30;1.00;;;;;;2275812;61;1260;-86
2023/12/01 02:29:14;1510029.00;5.03;2662.01;211644.00;0.71;365.96;;;;;7.30;1.00;;;;;;2275933;61;1001;-86
2023/12/01 02:31:41;1317428.00;4.39;2304.04;124552.00;0.42;215.93;;;;;7.10;1.00;;;;;;2275886;61;2190;-85
2023/12/01 02:34:08;1466071.00;4.89;2579.44;125639.00;0.42;217.81;;;;;7.50;1.00;;;;;;2275697;61;1575;-85
2023/12/01 02:36:35;818443.00;2.73;1413.31;122974.00;0.41;213.21;;;;;7.50;1.00;;;;;;2275797;61;1538;-87
2023/12/01 02:39:03;609007.00;2.03;1049.77;94505.00;0.32;164.09;;;;;7.50;1.00;;;;;;2275808;61;1423;-88
2023/12/01 02:41:30;306256.00;1.02;528.67;0.00;0.00;0.62;;;;;7.20;1.00;;;;;;2275723;61;1911;-86
2023/12/01 02:43:57;311244.00;1.04;537.25;0.00;0.00;0.62;;;;;7.60;1.00;;;;;;2275725;61;1474;-85
2023/12/01 02:46:25;242322.00;0.81;418.75;0.00;0.00;0.62;;;;;8.60;1.00;;;;;;2275691;61;1900;-86
2023/12/01 02:48:52;215276.00;0.72;372.21;0.00;0.00;0.62;;;;;8.60;1.00;;;;;;2275876;61;1072;-85
2023/12/01 02:51:23;38248.00;0.13;66.86;0.00;0.00;0.62;;;;;8.10;1.00;;;;;;2275870;61;985;-85
2023/12/01 02:53:49;84244.00;0.28;146.37;0.00;0.00;0.62;;;;;7.60;1.00;;;;;;2275643;61;1495;-84
2023/12/01 02:56:20;231767.00;0.77;400.59;0.00;0.00;0.62;;;;;7.40;1.00;;;;;;2275861;61;1261;-85
2023/12/01 02:58:48;490321.00;1.63;845.16;93545.00;0.31;162.43;;;;;7.40;1.00;;;;;;2275790;61;996;-85
2023/12/01 03:01:15;1841009.00;6.14;3302.81;76458.00;0.25;132.92;;;;;7.20;1.00;;;;;;2275835;61;1247;-87
2023/12/01 03:03:43;957070.00;3.19;1656.58;118055.00;0.39;204.73;;;;;7.20;1.00;;;;;;2275745;61;1993;-85
2023/12/01 03:06:10;451408.00;1.50;778.20;88174.00;0.29;153.15;;;;;7.10;1.00;;;;;;2275771;61;1355;-86
2023/12/01 03:08:40;284939.00;0.95;492.03;0.00;0.00;0.62;;;;;7.10;1.00;;;;;;2275850;61;1022;-85
2023/12/01 03:11:10;246074.00;0.82;425.20;0.00;0.00;0.62;;;;;7.20;1.00;;;;;;2275699;61;1626;-86
2023/12/01 03:13:38;777914.00;2.59;1342.63;20084.00;0.07;35.42;;;;;6.90;1.00;;;;;;2275818;61;967;-86
2023/12/01 03:16:13;1915135.00;6.38;3451.50;90917.00;0.30;157.89;;;;;7.00;1.00;;;;;;2275722;61;1423;-84
2023/12/01 03:18:40;1897633.00;6.33;3416.21;125623.00;0.42;217.78;;;;;7.10;1.00;;;;;;2275547;60;1514;-85
2023/12/01 03:21:12;598735.00;2.00;1032.04;90298.00;0.30;156.82;;;;;7.00;1.00;;;;;;2275445;60;1419;-85
2023/12/01 03:23:41;1371773.00;4.57;2404.07;105032.00;0.35;182.26;;;;;7.00;1.00;;;;;;2277060;60;2018;-85
2023/12/01 03:26:08;237946.00;0.79;411.22;0.00;0.00;0.62;;;;;6.80;1.00;;;;;;2279665;60;1304;-87
2023/12/01 03:28:35;167048.00;0.56;289.18;0.00;0.00;0.62;;;;;6.60;1.00;;;;;;2279786;60;1574;-86
2023/12/01 03:31:05;76138.00;0.25;132.37;0.00;0.00;0.62;;;;;6.60;1.00;;;;;;2279872;60;928;-85
2023/12/01 03:33:33;294129.00;0.98;507.83;0.00;0.00;0.62;;;;;6.60;1.00;;;;;;2279649;60;1598;-87
2023/12/01 03:36:03;1604874.00;5.35;2842.06;168620.00;0.56;291.89;;;;;7.00;1.00;;;;;;2280301;60;1486;-87
2023/12/01 03:38:32;1000886.00;3.34;1734.04;152441.00;0.51;264.01;;;;;6.70;1.00;;;;;;2280463;60;1114;-86
2023/12/01 03:41:05;301456.00;1.00;520.42;0.00;0.00;0.62;;;;;6.50;1.00;;;;;;2280449;60;1601;-85
2023/12/01 03:43:39;126643.00;0.42;219.54;0.00;0.00;0.62;;;;;6.50;1.00;;;;;;2280498;60;2003;-86
2023/12/01 03:46:08;70724.00;0.24;123.01;0.00;0.00;0.62;;;;;6.00;1.00;;;;;;2280418;60;1446;-84
2023/12/01 03:48:37;316686.00;1.06;546.60;0.00;0.00;0.62;;;;;5.90;1.00;;;;;;2371372;40;3624;-86
2023/12/01 03:51:09;255636.00;0.85;441.64;37325.00;0.12;65.26;;;;;5.80;1.00;;;;;;2280511;60;1094;-85
2023/12/01 03:53:36;944388.00;3.15;1634.22;50163.00;0.17;87.47;;;;;5.80;1.00;;;;;;2280369;60;1135;-85
2023/12/01 03:56:04;1313767.00;4.38;2297.32;104511.00;0.35;181.36;;;;;6.00;1.00;;;;;;2278394;60;1222;-85
2023/12/01 03:58:31;490748.00;1.64;845.90;96792.00;0.32;168.03;;;;;5.90;1.00;;;;;;2278982;60;1761;-85
2023/12/01 04:00:58;724718.00;2.42;1250.13;91110.00;0.30;158.22;;;;;5.70;1.00;;;;;;2280200;60;1526;-87
2023/12/01 04:03:26;385090.00;1.28;664.17;12604.00;0.04;22.46;;;;;5.50;1.00;;;;;;2280570;60;1998;-86
2023/12/01 04:05:53;78044.00;0.26;135.66;0.00;0.00;0.62;;;;;5.70;1.00;;;;;;2280552;60;1553;-86
2023/12/01 04:08:20;406769.00;1.36;701.44;55901.00;0.19;97.39;;;;;5.60;1.00;;;;;;2280705;60;1024;-85
2023/12/01 04:10:47;1383280.00;4.61;2425.35;67634.00;0.23;117.67;;;;;5.80;1.00;;;;;;2280672;60;1205;-85
2023/12/01 04:13:17;1563996.00;5.21;2764.13;143523.00;0.48;248.64;;;;;6.10;1.00;;;;;;2280621;60;1609;-85
2023/12/01 04:15:44;547403.00;1.82;943.48;98125.00;0.33;170.34;;;;;6.10;1.00;;;;;;2280544;60;1375;-84
2023/12/01 04:18:14;138408.00;0.46;239.83;0.00;0.00;0.62;;;;;6.10;1.00;;;;;;2280706;60;1008;-84
2023/12/01 04:20:42;88495.00;0.29;153.71;0.00;0.00;0.62;;;;;6.00;1.00;;;;;;2280531;60;1549;-84
2023/12/01 04:23:11;658801.00;2.20;1135.87;0.00;0.00;0.62;;;;;6.10;1.00;;;;;;2280602;60;1947;-84
2023/12/01 04:25:40;1383379.00;4.61;2425.53;91048.00;0.30;158.12;;;;;6.00;1.00;;;;;;2280521;60;1634;-86
2023/12/01 04:28:08;118620312.00;395.40;67611064.00;0.00;0.00;0.62;;;;;6.00;1.00;;;;;;2280468;60;1625;-85
2023/12/01 04:30:35;56607.00;0.19;98.61;0.00;0.00;0.62;;;;;6.10;1.00;;;;;;2280549;60;1411;-88
2023/12/01 04:33:02;707710.00;2.36;1220.61;0.00;0.00;0.62;;;;;6.40;1.00;;;;;;2280581;60;1023;-84
2023/12/01 04:35:31;589135.00;1.96;1015.46;95290.00;0.32;165.44;;;;;6.30;1.00;;;;;;2280341;60;1446;-85
2023/12/01 04:38:03;37364.00;0.12;65.33;0.00;0.00;0.62;;;;;6.50;1.00;;;;;;2280494;60;1510;-85
2023/12/01 04:40:31;46373.00;0.15;80.91;0.00;0.00;0.62;;;;;6.70;1.00;;;;;;2280583;60;1054;-86
2023/12/01 04:43:01;827400.00;2.76;1428.95;0.00;0.00;0.62;;;;;6.30;1.00;;;;;;2280469;60;2006;-85
2023/12/01 04:45:31;429563.00;1.43;740.63;92214.00;0.31;160.13;;;;;6.20;1.00;;;;;;2280457;60;1265;-85
2023/12/01 04:47:58;127321.00;0.42;220.71;0.00;0.00;0.62;;;;;5.70;1.00;;;;;;2280432;60;1134;-86
2023/12/01 04:50:30;108062.00;0.36;187.49;0.00;0.00;0.62;;;;;5.60;1.00;;;;;;2280572;60;1541;-84
2023/12/01 04:53:02;1277323.00;4.26;2230.66;37063.00;0.12;64.81;;;;;5.30;1.00;;;;;;2280517;60;1536;-86
2023/12/01 04:55:31;202629.00;0.68;350.45;48178.00;0.16;84.04;;;;;5.40;1.00;;;;;;2280446;60;1371;-85
2023/12/01 04:57:59;300092.00;1.00;518.08;42921.00;0.14;74.94;;;;;5.60;1.00;;;;;;2280481;60;1076;-84
2023/12/01 05:00:27;749481.00;2.50;1293.16;0.00;0.00;0.62;;;;;5.80;1.00;;;;;;2280505;60;1060;-86
2023/12/01 05:02:55;805936.00;2.69;1391.48;103509.00;0.35;179.63;;;;;6.10;1.00;;;;;;2280488;60;1992;-86
2023/12/01 05:05:25;19414.00;0.06;34.26;0.00;0.00;0.62;;;;;6.20;1.00;;;;;;2280418;60;1565;-86
2023/12/01 05:07:57;273524.00;0.91;472.40;0.00;0.00;0.62;;;;;6.20;1.00;;;;;;2277857;60;1961;-86
2023/12/01 05:10:26;883302.00;2.94;1526.81;0.00;0.00;0.62;;;;;6.30;1.00;;;;;;2276237;60;943;-86
2023/12/01 05:13:00;732417.00;2.44;1263.50;99817.00;0.33;173.26;;;;;6.30;1.00;;;;;;2275918;60;1628;-87
2023/12/01 05:15:34;1103505.00;3.68;1916.69;89066.00;0.30;154.69;;;;;6.40;1.00;;;;;;2276167;60;1304;-86
2023/12/01 05:18:04;620794.00;2.07;1070.14;95533.00;0.32;165.86;;;;;6.30;1.00;;;;;;2276380;60;1114;-85
2023/12/01 05:20:35;34733.00;0.12;60.77;0.00;0.00;0.62;;;;;6.30;1.00;;;;;;2276227;60;1515;-86
2023/12/01 05:23:09;128984.00;0.43;223.58;0.00;0.00;0.62;;;;;6.50;1.00;;;;;;2276414;60;1915;-85
2023/12/01 05:25:41;743019.00;2.48;1281.92;78620.00;0.26;136.65;;;;;6.00;1.00;;;;;;2276477;60;1436;-86
2023/12/01 05:28:10;866550.00;2.89;1497.44;131217.00;0.44;227.43;;;;;5.90;1.00;;;;;;2276386;60;1626;-84
2023/12/01 05:30:40;97002.00;0.32;168.40;0.00;0.00;0.62;;;;;6.00;1.00;;;;;;2276330;60;1043;-87
2023/12/01 05:33:08;43044.00;0.14;75.15;0.00;0.00;0.62;;;;;6.10;1.00;;;;;;2276429;60;1013;-85
2023/12/01 05:35:36;738145.00;2.46;1273.45;43024.00;0.14;75.12;;;;;6.20;1.00;;;;;;2276230;60;1673;-86
2023/12/01 05:38:04;359811.00;1.20;620.72;87091.00;0.29;151.28;;;;;6.30;1.00;;;;;;2276047;60;1630;-85
2023/12/01 05:40:34;423748.00;1.41;730.63;0.00;0.00;0.62;;;;;6.40;1.00;;;;;;2275906;60;926;-86
2023/12/01 05:43:03;159984.00;0.53;277.01;0.00;0.00;0.62;;;;;6.60;1.00;;;;;;2276080;60;1907;-86
2023/12/01 05:45:33;231881.00;0.77;400.78;0.00;0.00;0.62;;;;;6.60;1.00;;;;;;2276138;60;1436;-86
2023/12/01 05:48:00;632007.00;2.11;1089.52;53183.00;0.18;92.69;;;;;6.20;1.00;;;;;;2276124;60;1554;-86
2023/12/01 05:50:30;144087.00;0.48;249.62;0.00;0.00;0.62;;;;;6.10;1.00;;;;;;2276160;60;1058;-85
2023/12/01 05:52:58;232000.00;0.77;400.99;0.00;0.00;0.62;;;;;6.30;1.00;;;;;;2276311;60;1689;-85
2023/12/01 05:55:27;607188.00;2.02;1046.63;0.00;0.00;0.62;;;;;6.50;1.00;;;;;;2275757;60;1640;-85
2023/12/01 05:57:55;404923.00;1.35;698.27;4124.00;0.01;7.77;;;;;6.50;1.00;;;;;;2275643;60;1094;-87
2023/12/01 06:00:29;1093372.00;3.64;1898.57;114362.00;0.38;198.36;;;;;6.70;1.00;;;;;;2275953;60;1073;-87
2023/12/01 06:02:57;619894.00;2.07;1068.58;60414.00;0.20;105.19;;;;;6.80;1.00;;;;;;2276011;60;1934;-85
2023/12/01 06:05:24;576918.00;1.92;994.38;6123.00;0.02;11.23;;;;;6.80;1.00;;;;;;2276115;60;1382;-85
2023/12/01 06:07:54;432592.00;1.44;745.84;94486.00;0.31;164.05;;;;;6.60;1.00;;;;;;2275982;60;1122;-84
2023/12/01 06:10:22;1219188.00;4.06;2124.95;123369.00;0.41;213.89;;;;;6.40;1.00;;;;;;2275945;60;1110;-85
2023/12/01 06:12:49;1115556.00;3.72;1938.27;118891.00;0.40;206.17;;;;;6.50;1.00;;;;;;2276066;60;1067;-84
2023/12/01 06:15:17;919521.00;3.07;1590.43;0.00;0.00;0.62;;;;;6.60;1.00;;;;;;2276142;60;1298;-85
2023/12/01 06:17:47;907694.00;3.03;1569.64;0.00;0.00;0.62;;;;;6.60;1.00;;;;;;2276058;60;1591;-84
2023/12/01 06:20:19;315081.00;1.05;543.84;38744.00;0.13;67.72;;;;;6.40;1.00;;;;;;2276223;60;1095;-85
2023/12/01 06:22:47;296007.00;0.99;511.06;0.00;0.00;0.62;;;;;6.20;1.00;;;;;;2276286;60;1997;-86
2023/12/01 06:25:15;95418.00;0.32;165.66;0.00;0.00;0.62;;;;;5.80;1.00;;;;;;2276154;60;1458;-85
2023/12/01 06:27:42;147367.00;0.49;255.27;0.00;0.00;0.62;;;;;5.90;1.00;;;;;;2276119;60;1654;-86
2023/12/01 06:30:11;2063815.00;6.88;3756.19;336677.00;1.12;580.96;;;;;6.00;1.00;;;;;;2276238;61;1629;-84
2023/12/01 06:32:42;636943.00;2.12;1098.05;87498.00;0.29;151.99;;;;;6.10;1.00;;;;;;2276190;61;1327;-85
2023/12/01 06:35:13;165866.00;0.55;287.15;0.00;0.00;0.62;;;;;6.50;1.00;;;;;;2276121;61;1269;-85
2023/12/01 06:37:40;452693.00;1.51;780.41;34334.00;0.11;60.08;;;;;6.50;1.00;;;;;;2276220;60;1036;-86
2023/12/01 06:40:11;107009.00;0.36;185.67;0.00;0.00;0.62;;;;;6.50;1.00;;;;;;2276190;60;1560;-85
2023/12/01 06:42:39;50830.00;0.17;88.62;0.00;0.00;0.62;;;;;6.20;1.00;;;;;;2276239;60;1672;-86
2023/12/01 06:45:07;13847.00;0.05;24.61;0.00;0.00;0.62;;;;;6.30;1.00;;;;;;2276092;60;1580;-87
2023/12/01 06:47:35;69998.00;0.23;121.76;0.00;0.00;0.62;;;;;6.10;1.00;;;;;;2276137;60;1065;-86
2023/12/01 06:50:03;163816.00;0.55;283.61;0.00;0.00;0.62;;;;;5.70;1.00;;;;;;2276104;60;1584;-85
2023/12/01 06:55:03;139627.00;0.47;241.93;0.00;0.00;0.62;;;;;5.40;1.00;;;;;;2306386;55;3657;-85
2023/12/01 06:57:30;204921.00;0.68;354.39;0.00;0.00;0.62;;;;;4.80;1.00;;;;;;2276194;61;1102;-84
2023/12/01 06:59:57;28024.00;0.09;49.16;0.00;0.00;0.62;;;;;4.70;3.30;;;;;;2276107;61;1094;-85
2023/12/01 07:02:24;36256.00;0.12;63.41;0.00;0.00;0.62;;;;;4.60;3.30;;;;;;2276115;61;963;-86
2023/12/01 07:04:55;202572.00;0.68;350.35;0.00;0.00;0.62;;;;;4.80;3.20;;;;;;2276049;61;1922;-85
2023/12/01 07:07:22;108709.00;0.36;188.60;0.00;0.00;0.62;;;;;4.90;2.90;;;;;;2276222;61;1377;-86
2023/12/01 07:09:50;197999.00;0.66;342.48;0.00;0.00;0.62;;;;;5.00;1.60;;;;;;2276770;61;1167;-87
2023/12/01 07:12:18;663136.00;2.21;1143.37;0.00;0.00;0.62;;;;;5.20;1.30;;;;;;2276756;61;1521;-87
2023/12/01 07:17:13;950629.00;3.17;1645.22;0.00;0.00;0.62;;;;;5.70;1.00;;;;;;2278770;61;1375;-85
2023/12/01 07:19:40;252684.00;0.84;436.57;0.00;0.00;0.62;;;;;5.70;1.00;;;;;;2276726;61;1081;-86
2023/12/01 07:22:07;176548.00;0.59;305.54;0.00;0.00;0.62;;;;;5.20;1.00;;;;;;2276853;61;1547;-87
2023/12/01 07:24:34;351015.00;1.17;605.61;0.00;0.00;0.62;;;;;4.80;1.70;;;;;;2276710;61;1910;-86
2023/12/01 07:27:02;149446.00;0.50;258.85;0.00;0.00;0.62;;;;;4.40;3.90;;;;;;2276717;61;1729;-87
2023/12/01 07:31:59;66947.00;0.22;116.48;0.00;0.00;0.62;;;;;5.10;2.50;;;;;;2286807;60;1398;-86
2023/12/01 07:34:26;1741758.00;5.81;3106.85;149670.00;0.50;259.24;;;;;5.10;2.20;;;;;;2284795;60;1686;-87
2023/12/01 07:36:53;1943092.00;6.48;3508.12;149177.00;0.50;258.39;;;;;5.40;1.00;;;;;;2281389;61;1501;-85
2023/12/01 07:39:22;485130.00;1.62;836.23;118351.00;0.39;205.24;;;;;5.60;1.00;;;;;;2280670;61;1582;-86
2023/12/01 07:41:50;13849.00;0.05;24.62;0.00;0.00;0.62;;;;;6.00;1.00;;;;;;2280769;61;1789;-86
2023/12/01 07:44:18;185719.00;0.62;321.34;29773.00;0.10;52.19;;;;;6.10;1.00;;;;;;2280730;61;2001;-88
2023/12/01 07:46:45;112148.00;0.37;194.54;0.00;0.00;0.62;;;;;6.10;1.00;;;;;;2280737;61;1358;-87
2023/12/01 07:49:13;69663.00;0.23;121.18;0.00;0.00;0.62;;;;;6.20;1.00;;;;;;2280851;61;1069;-87
2023/12/01 07:51:40;124823.00;0.42;216.40;0.00;0.00;0.62;;;;;6.30;1.00;;;;;;2280848;61;1024;-86
2023/12/01 07:54:07;63259.00;0.21;110.11;0.00;0.00;0.62;;;;;6.30;1.00;;;;;;2280524;61;2199;-87
2023/12/01 07:56:34;1115754.00;3.72;1938.62;161418.00;0.54;279.48;;;;;6.20;1.00;;;;;;2280580;61;1363;-88
2023/12/01 07:59:02;2048713.00;6.83;3724.83;111950.00;0.37;194.19;;;;;6.30;1.00;;;;;;2280734;61;1776;-85
2023/12/01 08:01:29;295877.00;0.99;510.83;87680.00;0.29;152.30;;;;;6.40;1.00;;;;;;2280737;61;1711;-88
2023/12/01 08:03:56;305558.00;1.02;527.47;0.00;0.00;0.62;;;;;6.40;1.00;;;;;;2280641;61;1907;-87
2023/12/01 08:06:24;35153.00;0.12;61.50;0.00;0.00;0.62;;;;;6.60;1.00;;;;;;2280753;61;1364;-88
2023/12/01 08:08:51;112382.00;0.37;194.94;0.00;0.00;0.62;;;;;6.50;1.00;;;;;;2280885;61;903;-87
2023/12/01 08:11:19;53659.00;0.18;93.51;0.00;0.00;0.62;;;;;6.50;1.00;;;;;;2280774;61;1197;-87
2023/12/01 08:13:46;1401114.00;4.67;2458.39;171226.00;0.57;296.38;;;;;6.50;1.00;;;;;;2280749;61;1142;-87
2023/12/01 08:16:12;1161659.00;3.87;2021.05;66748.00;0.22;116.14;;;;;6.50;1.00;;;;;;2280698;61;1386;-87
2023/12/01 08:21:08;139679.00;0.47;242.02;0.00;0.00;0.62;;;;;6.40;1.00;;;;;;2286128;60;1386;-87
2023/12/01 08:23:36;76538.00;0.26;133.06;0.00;0.00;0.62;;;;;6.50;1.00;;;;;;2294921;55;3703;-88
2023/12/01 08:26:04;110681.00;0.37;192.01;0.00;0.00;0.62;;;;;6.50;1.00;;;;;;2278736;60;1413;-86
2023/12/01 08:28:30;131770.00;0.44;228.38;0.00;0.00;0.62;;;;;6.50;1.00;;;;;;2276520;61;908;-87
2023/12/01 08:30:58;157443.00;0.52;272.63;0.00;0.00;0.62;;;;;6.50;1.00;;;;;;2276643;61;1136;-90
2023/12/01 08:33:25;11961.00;0.04;21.35;0.00;0.00;0.62;;;;;6.60;1.00;;;;;;2276517;61;1698;-86
2023/12/01 08:38:21;1888521.00;6.30;3397.88;218614.00;0.73;377.96;;;;;6.50;1.00;;;;;;2288898;55;3709;-87
2023/12/01 08:40:49;1065604.00;3.55;1849.02;190978.00;0.64;330.39;;;;;6.40;1.00;;;;;;2280441;60;1538;-87
2023/12/01 08:43:16;276952.00;0.92;478.30;94701.00;0.32;164.42;;;;;6.50;1.00;;;;;;2280569;60;2001;-87
2023/12/01 08:45:43;39572.00;0.13;69.15;0.00;0.00;0.62;;;;;6.50;1.00;;;;;;2279336;60;1366;-86
2023/12/01 08:48:10;95516.00;0.32;165.83;0.00;0.00;0.62;;;;;6.40;1.00;;;;;;2276631;61;1024;-86
2023/12/01 08:50:37;64346.00;0.21;111.99;0.00;0.00;0.62;;;;;6.50;1.00;;;;;;2276468;61;967;-85
2023/12/01 08:53:04;119093.00;0.40;206.52;0.00;0.00;0.62;;;;;6.50;1.00;;;;;;2276451;61;1002;-86
2023/12/01 08:55:30;306082.00;1.02;528.37;0.00;0.00;0.62;;;;;6.50;1.00;;;;;;2276507;61;1294;-86
2023/12/01 08:57:59;117617.00;0.39;203.97;0.00;0.00;0.62;;;;;6.60;1.00;;;;;;2276394;61;1561;-87
2023/12/01 09:00:26;64659.00;0.22;112.53;0.00;0.00;0.62;;;;;6.50;1.00;;;;;;2276587;61;1744;-87
2023/12/01 09:02:53;19489.00;0.06;34.39;0.00;0.00;0.62;;;;;6.20;1.00;;;;;;2276620;61;968;-87
2023/12/01 09:05:19;85722.00;0.29;148.92;0.00;0.00;0.62;;;;;6.10;1.00;;;;;;2276423;61;2030;-85
2023/12/01 09:07:48;44956.00;0.15;78.46;0.00;0.00;0.62;;;;;5.50;1.00;;;;;;2276500;61;1560;-87
2023/12/01 09:10:15;41894.00;0.14;73.17;0.00;0.00;0.62;;;;;5.40;1.00;;;;;;2276457;61;1773;-86
2023/12/01 09:12:42;94330.00;0.31;163.78;0.00;0.00;0.62;;;;;5.70;1.00;;;;;;2276492;61;961;-86
2023/12/01 09:15:12;427016.00;1.42;736.25;51646.00;0.17;90.03;;;;;6.00;1.00;;;;;;2276396;61;1344;-87
2023/12/01 09:17:39;488035.00;1.63;841.23;7786.00;0.03;14.11;;;;;5.60;1.00;;;;;;2276419;61;1714;-86
2023/12/01 09:20:08;1423673.00;4.75;2500.30;69466.00;0.23;120.84;;;;;4.90;1.60;;;;;;2276196;61;1693;-88
2023/12/01 09:22:35;1053049.00;3.51;1826.66;92747.00;0.31;161.05;;;;;4.70;3.50;;;;;;2276334;61;1537;-88
2023/12/01 09:25:02;1372110.00;4.57;2404.70;43784.00;0.15;76.43;;;;;4.80;4.60;;;;;;2276244;61;1918;-86
2023/12/01 09:27:29;467625.00;1.56;806.10;101215.00;0.34;175.67;;;;;5.20;2.70;;;;;;2276534;61;1095;-85
2023/12/01 09:29:56;591973.00;1.97;1020.36;92811.00;0.31;161.16;;;;;5.40;2.20;;;;;;2276572;61;1056;-85
2023/12/01 09:32:24;117135112.00;390.45;65100944.00;116830336.00;389.43;64593644.00;;;;;5.60;1.00;;;;;;2276406;61;1691;-86
2023/12/01 09:34:51;144391.00;0.48;250.14;0.00;0.00;0.62;;;;;5.90;1.00;;;;;;2276476;61;1009;-86
2023/12/01 09:37:18;321157.00;1.07;554.29;0.00;0.00;0.62;;;;;6.30;1.00;;;;;;2276328;61;1284;-86
2023/12/01 09:42:16;286072.00;0.95;493.98;0.00;0.00;0.62;;;;;6.60;1.00;;;;;;2282839;61;1332;-91
2023/12/01 09:44:44;164052.00;0.55;284.02;29067.00;0.10;50.97;;;;;6.40;1.00;;;;;;2280986;61;2001;-88
2023/12/01 09:47:13;374361.00;1.25;645.73;26942.00;0.09;47.29;;;;;6.00;1.00;;;;;;2277297;61;1175;-90
2023/12/01 09:49:43;1043575.00;3.48;1809.80;100544.00;0.34;174.51;;;;;6.00;1.00;;;;;;2342429;40;3759;-86
2023/12/01 09:52:10;1230447.00;4.10;2145.37;82690.00;0.28;143.68;;;;;6.20;1.00;;;;;;2280222;60;894;-88
2023/12/01 09:57:13;722759.00;2.41;1246.73;64450.00;0.21;112.17;;;;;6.60;1.00;;;;;;2295544;56;2939;-86
2023/12/01 09:59:40;136085.00;0.45;235.82;0.00;0.00;0.62;;;;;6.90;1.00;;;;;;2280177;60;1656;-87
2023/12/01 10:02:08;390071.00;1.30;672.74;0.00;0.00;0.62;;;;;7.00;1.00;;;;;;2280237;60;1037;-88
2023/12/01 10:04:35;1111764.00;3.71;1931.47;44267.00;0.15;77.27;;;;;7.10;1.00;;;;;;2280154;60;2009;-86
2023/12/01 10:09:39;1055682.00;3.52;1831.35;94852.00;0.32;164.69;;;;;5.80;1.00;;;;;;2011770;55;3559;-87
2023/12/01 10:12:12;138189.00;0.46;239.45;0.00;0.00;0.62;;;;;5.80;1.00;;;;;;2280162;60;1000;-85